Angra Dos Reis, Brazil

9:17 AM BRT on October 01, 2014 (GMT -0300)
Jacarepagua | Change Station
CLOSE
Current Station
Airport
Location: Rio,
Elevation: 10 ft
Nearby Weather Stations

Elev 10 ft 22.99 °S, 43.37 °W | Updated 1 hour ago

Mostly Cloudy
Mostly Cloudy
82 °F
Feels Like 88 °F
N
6
Wind Variable Wind from North

Today
High -- | Low -- °F
--% Chance of Precip.
Yesterday
High -- | Low -- °F
Precip. -- in
5:37 AM 5:56 PM
Waxing Crescent, 47% visible
Pressure 29.89 in
Visibility 5.6 miles
Clouds Few 4000 ft
Mostly Cloudy 9000 ft
Heat Index 88 °F
Dew Point 73 °F
Humidity 74%
Rainfall 0.00 in
Snow Depth Not available.
UV 2 out of 12
Pollen Not available.
Air Quality Not available.
Flu Activity Not available.
METAR SBJR 011100Z 36005KT 9000 FEW040 BKN090 28/23 Q1012

More Conditions Fewer Conditions

Pressure 29.89 in
Visibility 5.6 miles
Clouds Few 4000 ft
Mostly Cloudy 9000 ft
Heat Index 88 °F
Dew Point 73 °F
Humidity 74%
Rainfall 0.00 in
Snow Depth Not available.
UV 2 out of 12
Pollen Not available.
Air Quality Not available.
Flu Activity Not available.
METAR SBJR 011100Z 36005KT 9000 FEW040 BKN090 28/23 Q1012

More Conditions Fewer Conditions

10-Day Weather Forecast

Almanac

Astronomy

Oct. 01, 2014 Rise Set
Actual Time 5:37 AM BRT 5:56 PM BRT
Civil Twilight 5:15 AM BRT 6:18 PM BRT
Nautical Twilight 4:49 AM BRT 6:45 PM BRT
Astronomical Twilight 4:22 AM BRT 7:11 PM BRT
Moon 11:08 AM BRT No Moon Set
Length of Visible Light 13h 03m
Length of Day
12h 18m
Tomorrow will be 1m 20s longer.
Waxing Crescent, 47% of the Moon is Illuminated
Today
Waxing Crescent
Oct 1
First Quarter
Oct 8
Full
Oct 15
Last Quarter
Oct 23
New

Yesterday's Extremes

Country Highs Country Lows

Community

WunderPhotos

Upload Photos

1,757,914 photos uploaded!

Nearby

Snow Depth

Not available.

Earthquake Activity

City Distance Mag. Time & Date
No recent earthquake activity has been reported nearby.
Minimum magnitude displayed is 2.5.

Coastal Water Temperatures

Place Temperature
No Stations Reporting

Nearby Weather Stations